Time;durP1;ratioP1;P1;durP2;ratioP2;P2;SDS_P1;SDS_P2;PMS_P1;PMS_P2;Temp;Humidity;BMP_temperature;BMP_pressure;BME280_temperature;BME280_humidity;BME280_pressure;Samples;Min_cycle;Max_cycle;Signal;HPM_P1;HPM_P2
2022/09/30 00:02:17;;;;;;;9.48;8.52;;;;;;;;;;4971511;28;20440;-83
2022/09/30 00:04:43;;;;;;;9.60;8.60;;;;;;;;;;4967227;28;20467;-83
2022/09/30 00:07:11;;;;;;;9.93;8.93;;;;;;;;;;4977655;28;20929;-83
2022/09/30 00:09:38;;;;;;;9.43;8.43;;;;;;;;;;4985507;28;20443;-84
2022/09/30 00:12:04;;;;;;;9.40;8.50;;;;;;;;;;4984910;28;20433;-83
2022/09/30 00:14:31;;;;;;;9.90;8.97;;;;;;;;;;4984116;28;20419;-83
2022/09/30 00:16:58;;;;;;;10.27;9.27;;;;;;;;;;4982883;28;20425;-83
2022/09/30 00:19:30;;;;;;;10.38;9.32;;;;;;;;;;4984276;28;20430;-83
2022/09/30 00:21:57;;;;;;;10.80;9.70;;;;;;;;;;4984489;28;20423;-83
2022/09/30 00:24:23;;;;;;;10.50;9.40;;;;;;;;;;4982918;28;20424;-83
2022/09/30 00:26:49;;;;;;;10.98;9.88;;;;;;;;;;4981236;28;21120;-83
2022/09/30 00:29:16;;;;;;;11.27;10.20;;;;;;;;;;4982751;28;20440;-83
2022/09/30 00:31:42;;;;;;;11.57;9.98;;;;;;;;;;4984126;28;20432;-83
2022/09/30 00:34:10;;;;;;;10.60;9.38;;;;;;;;;;4983663;28;20434;-83
2022/09/30 00:36:39;;;;;;;11.07;10.07;;;;;;;;;;4982705;28;20422;-83
2022/09/30 00:39:06;;;;;;;11.55;10.35;;;;;;;;;;4984509;28;20422;-83
2022/09/30 00:41:33;;;;;;;11.63;10.52;;;;;;;;;;4984429;28;20427;-83
2022/09/30 00:44:00;;;;;;;11.17;10.17;;;;;;;;;;4983174;28;20434;-84
2022/09/30 00:46:32;;;;;;;11.32;10.23;;;;;;;;;;4986126;28;20430;-83
2022/09/30 00:49:00;;;;;;;11.32;10.20;;;;;;;;;;4984471;28;20440;-83
2022/09/30 00:51:31;;;;;;;10.98;9.98;;;;;;;;;;4984005;28;21331;-83
2022/09/30 00:54:02;;;;;;;13.02;11.73;;;;;;;;;;4984674;28;20437;-83
2022/09/30 00:56:30;;;;;;;14.38;12.98;;;;;;;;;;4986328;28;20438;-83
2022/09/30 00:59:00;;;;;;;13.18;11.63;;;;;;;;;;4983249;28;20434;-83
2022/09/30 01:01:27;;;;;;;12.35;11.15;;;;;;;;;;4986054;28;20438;-84
2022/09/30 01:03:56;;;;;;;12.95;11.60;;;;;;;;;;4984620;28;20434;-83
2022/09/30 01:06:24;;;;;;;13.47;11.93;;;;;;;;;;4983481;28;20690;-84
2022/09/30 01:08:50;;;;;;;15.82;12.55;;;;;;;;;;4985712;28;20446;-83
2022/09/30 01:11:18;;;;;;;13.43;12.13;;;;;;;;;;4984354;28;20916;-83
2022/09/30 01:13:48;;;;;;;15.40;12.85;;;;;;;;;;4981690;28;20438;-83
2022/09/30 01:16:38;;;;;;;13.02;11.73;;;;;;;;;;4982180;28;20420;-82
2022/09/30 01:19:14;;;;;;;16.00;12.15;;;;;;;;;;4972620;28;20434;-83
2022/09/30 01:21:48;;;;;;;12.70;11.40;;;;;;;;;;4984016;28;20451;-82
2022/09/30 01:24:29;;;;;;;13.90;12.60;;;;;;;;;;4985646;28;20445;-83
2022/09/30 01:27:05;;;;;;;15.60;13.40;;;;;;;;;;4978741;28;20437;-83
2022/09/30 01:29:50;;;;;;;14.23;12.83;;;;;;;;;;4984656;28;20426;-84
2022/09/30 01:32:25;;;;;;;14.10;12.70;;;;;;;;;;4980640;28;20454;-84
2022/09/30 01:34:58;;;;;;;12.85;11.65;;;;;;;;;;4982124;28;20804;-83
2022/09/30 01:37:31;;;;;;;13.20;11.80;;;;;;;;;;4982082;28;20459;-83
2022/09/30 01:40:03;;;;;;;14.50;13.07;;;;;;;;;;4985656;28;20450;-84
2022/09/30 01:42:35;;;;;;;13.20;11.90;;;;;;;;;;4983011;28;21076;-84
2022/09/30 01:45:07;;;;;;;13.45;12.15;;;;;;;;;;4982701;28;20429;-84
2022/09/30 01:47:39;;;;;;;13.00;11.80;;;;;;;;;;4980190;28;20438;-82
2022/09/30 01:50:09;;;;;;;13.55;12.27;;;;;;;;;;4987038;28;20447;-84
2022/09/30 01:52:38;;;;;;;13.50;12.20;;;;;;;;;;4984555;28;20428;-84
2022/09/30 01:55:08;;;;;;;13.77;12.27;;;;;;;;;;4982083;28;20430;-83
2022/09/30 01:57:39;;;;;;;15.43;12.40;;;;;;;;;;4982086;28;20434;-82
2022/09/30 02:00:09;;;;;;;12.70;11.60;;;;;;;;;;4984822;28;20441;-82
2022/09/30 02:02:40;;;;;;;13.77;12.38;;;;;;;;;;4983755;28;20670;-81
2022/09/30 02:05:09;;;;;;;13.30;12.00;;;;;;;;;;4985282;28;20501;-83
2022/09/30 02:07:36;;;;;;;14.35;12.88;;;;;;;;;;4984456;28;20531;-83
2022/09/30 02:10:05;;;;;;;14.40;13.00;;;;;;;;;;4981726;28;20442;-84
2022/09/30 02:12:34;;;;;;;14.30;12.90;;;;;;;;;;4985305;28;20439;-84
2022/09/30 02:15:02;;;;;;;13.50;12.20;;;;;;;;;;4984356;28;20442;-83
2022/09/30 02:17:30;;;;;;;13.30;12.10;;;;;;;;;;4980935;28;20431;-83
2022/09/30 02:20:00;;;;;;;13.63;12.43;;;;;;;;;;4988060;28;20433;-82
2022/09/30 02:22:29;;;;;;;14.52;13.23;;;;;;;;;;4988022;28;20466;-82
2022/09/30 02:24:59;;;;;;;12.57;11.47;;;;;;;;;;4988176;28;20443;-82
2022/09/30 02:27:30;;;;;;;14.40;12.90;;;;;;;;;;4986873;28;20445;-83
2022/09/30 02:29:58;;;;;;;13.68;12.38;;;;;;;;;;4986530;28;20927;-87
2022/09/30 02:32:25;;;;;;;13.13;11.83;;;;;;;;;;4987015;28;20430;-85
2022/09/30 02:34:53;;;;;;;13.95;12.65;;;;;;;;;;4984253;28;20432;-83
2022/09/30 02:37:24;;;;;;;13.40;12.10;;;;;;;;;;4987019;28;20473;-83
2022/09/30 02:39:52;;;;;;;12.30;11.20;;;;;;;;;;4986777;28;21192;-82
2022/09/30 02:42:20;;;;;;;12.60;11.50;;;;;;;;;;4986133;28;20804;-84
2022/09/30 02:44:47;;;;;;;12.90;11.70;;;;;;;;;;4986073;28;20439;-83
2022/09/30 02:47:18;;;;;;;11.90;10.80;;;;;;;;;;4984947;28;20967;-84
2022/09/30 02:49:47;;;;;;;12.25;11.00;;;;;;;;;;4988460;28;20915;-83
2022/09/30 02:52:20;;;;;;;12.35;11.10;;;;;;;;;;4988442;28;20434;-83
2022/09/30 02:54:52;;;;;;;12.93;11.77;;;;;;;;;;4988803;28;20434;-82
2022/09/30 02:57:22;;;;;;;13.65;12.25;;;;;;;;;;4986435;28;20433;-90
2022/09/30 02:59:51;;;;;;;12.43;11.13;;;;;;;;;;4989028;28;20449;-83
2022/09/30 03:02:18;;;;;;;12.90;11.60;;;;;;;;;;4984405;28;20481;-85
2022/09/30 03:04:46;;;;;;;14.57;12.05;;;;;;;;;;4984038;28;20920;-83
2022/09/30 03:07:12;;;;;;;13.90;12.50;;;;;;;;;;4986597;28;21387;-83
2022/09/30 03:09:39;;;;;;;14.32;12.93;;;;;;;;;;4986527;28;20435;-83
2022/09/30 03:12:12;;;;;;;13.18;11.88;;;;;;;;;;4988215;28;20421;-83
2022/09/30 03:14:44;;;;;;;15.40;13.90;;;;;;;;;;4983565;28;20970;-84
2022/09/30 03:17:24;;;;;;;15.52;14.07;;;;;;;;;;4986314;28;20433;-84
2022/09/30 03:20:06;;;;;;;14.38;13.02;;;;;;;;;;4987914;28;20531;-84
2022/09/30 03:22:40;;;;;;;15.02;13.57;;;;;;;;;;4986828;28;20430;-82
2022/09/30 03:25:13;;;;;;;15.90;14.07;;;;;;;;;;4986679;28;20436;-84
2022/09/30 03:27:44;;;;;;;14.60;13.20;;;;;;;;;;4982513;28;20513;-82
2022/09/30 03:30:14;;;;;;;13.90;12.60;;;;;;;;;;4987077;28;20449;-83
2022/09/30 03:32:48;;;;;;;14.43;12.93;;;;;;;;;;4984388;28;20436;-82
2022/09/30 03:35:18;;;;;;;13.43;11.73;;;;;;;;;;4988209;28;20426;-81
2022/09/30 03:37:48;;;;;;;12.02;10.82;;;;;;;;;;4986250;28;21141;-82
2022/09/30 03:40:17;;;;;;;13.07;11.88;;;;;;;;;;4984862;28;20425;-83
2022/09/30 03:42:46;;;;;;;13.50;12.20;;;;;;;;;;4984624;28;20519;-83
2022/09/30 03:45:19;;;;;;;14.55;13.15;;;;;;;;;;4985457;28;20449;-83
2022/09/30 03:47:46;;;;;;;13.55;12.25;;;;;;;;;;4985601;28;20434;-82
2022/09/30 03:50:15;;;;;;;13.20;11.90;;;;;;;;;;4987321;28;20442;-82
2022/09/30 03:52:42;;;;;;;14.10;12.80;;;;;;;;;;4985765;28;20439;-82
2022/09/30 03:55:10;;;;;;;14.50;13.10;;;;;;;;;;4989400;28;20947;-81
2022/09/30 03:57:37;;;;;;;14.05;12.73;;;;;;;;;;4984292;28;20430;-84
2022/09/30 04:00:05;;;;;;;13.52;12.13;;;;;;;;;;4986514;28;20438;-82
2022/09/30 04:02:32;;;;;;;13.68;12.38;;;;;;;;;;4981291;28;20507;-84
2022/09/30 04:04:59;;;;;;;13.98;12.68;;;;;;;;;;4984072;28;20438;-82
2022/09/30 04:07:25;;;;;;;14.77;13.13;;;;;;;;;;4984440;28;20422;-84
2022/09/30 04:09:51;;;;;;;15.90;14.20;;;;;;;;;;4985453;28;20449;-83
2022/09/30 04:12:18;;;;;;;14.73;13.13;;;;;;;;;;4984277;28;20850;-84
2022/09/30 04:14:44;;;;;;;18.15;14.55;;;;;;;;;;4984790;28;20937;-84
2022/09/30 04:17:12;;;;;;;14.60;13.10;;;;;;;;;;4982092;28;20436;-83
2022/09/30 04:19:39;;;;;;;15.98;14.27;;;;;;;;;;4984992;28;20434;-83
2022/09/30 04:22:05;;;;;;;16.50;14.90;;;;;;;;;;4985153;28;20437;-80
2022/09/30 04:24:32;;;;;;;16.80;15.15;;;;;;;;;;4985670;28;20430;-83
2022/09/30 04:26:58;;;;;;;16.83;15.13;;;;;;;;;;4984010;28;20469;-84
2022/09/30 04:29:24;;;;;;;16.70;14.98;;;;;;;;;;4986632;28;20441;-81
2022/09/30 04:31:51;;;;;;;16.37;14.57;;;;;;;;;;4985165;28;20510;-83
2022/09/30 04:34:22;;;;;;;16.98;15.18;;;;;;;;;;4985579;28;20486;-82
2022/09/30 04:36:48;;;;;;;15.00;13.50;;;;;;;;;;4982062;28;20436;-81
2022/09/30 04:39:14;;;;;;;16.13;14.13;;;;;;;;;;5017534;28;20440;-82
2022/09/30 04:41:41;;;;;;;15.70;13.43;;;;;;;;;;4986170;28;20794;-87
2022/09/30 04:44:08;;;;;;;17.50;15.70;;;;;;;;;;4988287;28;20510;-84
2022/09/30 04:46:36;;;;;;;17.98;16.17;;;;;;;;;;4985700;28;21073;-83
2022/09/30 04:49:02;;;;;;;16.98;15.38;;;;;;;;;;4983465;28;20441;-80
2022/09/30 04:51:32;;;;;;;18.65;16.77;;;;;;;;;;4985783;28;21109;-83
2022/09/30 04:53:59;;;;;;;18.60;16.17;;;;;;;;;;4987150;28;20438;-83
2022/09/30 04:56:26;;;;;;;17.40;15.80;;;;;;;;;;4984864;28;20454;-83
2022/09/30 04:58:53;;;;;;;18.92;16.60;;;;;;;;;;4986531;28;21034;-84
2022/09/30 05:01:20;;;;;;;17.83;16.02;;;;;;;;;;4981909;28;20424;-81
2022/09/30 05:03:47;;;;;;;18.67;16.87;;;;;;;;;;4985006;28;20824;-83
2022/09/30 05:06:14;;;;;;;18.70;16.90;;;;;;;;;;4985871;28;20499;-83
2022/09/30 05:08:43;;;;;;;18.57;16.57;;;;;;;;;;4982485;28;20441;-82
2022/09/30 05:11:11;;;;;;;17.85;16.15;;;;;;;;;;4983622;28;20465;-83
2022/09/30 05:13:38;;;;;;;19.15;17.33;;;;;;;;;;4984413;28;20429;-84
2022/09/30 05:16:06;;;;;;;18.15;16.25;;;;;;;;;;4981655;28;20426;-83
2022/09/30 05:18:33;;;;;;;18.50;16.50;;;;;;;;;;4980905;28;21029;-83
2022/09/30 05:21:01;;;;;;;19.67;17.58;;;;;;;;;;4984781;28;20454;-83
2022/09/30 05:23:29;;;;;;;19.20;17.20;;;;;;;;;;4982070;28;20446;-83
2022/09/30 05:25:57;;;;;;;23.25;20.13;;;;;;;;;;4981973;28;20913;-87
2022/09/30 05:28:24;;;;;;;22.30;19.90;;;;;;;;;;4984034;28;20467;-83
2022/09/30 05:30:55;;;;;;;22.63;20.42;;;;;;;;;;4984704;28;20430;-83
2022/09/30 05:33:23;;;;;;;22.65;20.08;;;;;;;;;;4983331;28;20445;-83
2022/09/30 05:35:49;;;;;;;20.55;18.35;;;;;;;;;;4982653;28;20438;-83
2022/09/30 05:38:16;;;;;;;23.33;20.92;;;;;;;;;;4984464;28;20444;-84
2022/09/30 05:40:42;;;;;;;22.27;19.98;;;;;;;;;;4983367;28;20440;-82
2022/09/30 05:43:10;;;;;;;23.50;20.93;;;;;;;;;;4985299;28;20442;-81
2022/09/30 05:45:39;;;;;;;22.30;20.10;;;;;;;;;;4982306;28;20442;-84
2022/09/30 05:48:07;;;;;;;23.83;21.30;;;;;;;;;;4985415;28;20983;-83
2022/09/30 05:50:33;;;;;;;23.17;20.77;;;;;;;;;;4984416;28;20430;-83
2022/09/30 05:53:00;;;;;;;23.47;20.97;;;;;;;;;;4984470;28;21024;-82
2022/09/30 05:55:26;;;;;;;22.80;20.38;;;;;;;;;;4990420;28;20483;-82
2022/09/30 05:57:53;;;;;;;23.33;20.83;;;;;;;;;;4989713;28;20956;-83
2022/09/30 06:00:20;;;;;;;23.35;21.05;;;;;;;;;;4989035;28;20425;-82
2022/09/30 06:02:50;;;;;;;25.10;20.92;;;;;;;;;;4991354;28;20431;-83
2022/09/30 06:05:17;;;;;;;24.70;21.90;;;;;;;;;;4992425;28;20426;-83
2022/09/30 06:07:43;;;;;;;24.02;20.77;;;;;;;;;;4988304;28;20428;-82
2022/09/30 06:10:11;;;;;;;24.08;21.48;;;;;;;;;;4991930;28;20419;-83
2022/09/30 06:12:37;;;;;;;24.15;21.67;;;;;;;;;;4989760;28;20424;-83
2022/09/30 06:15:04;;;;;;;24.10;21.60;;;;;;;;;;4988656;28;20440;-82
2022/09/30 06:17:33;;;;;;;22.88;19.95;;;;;;;;;;4988223;28;20443;-84
2022/09/30 06:19:59;;;;;;;23.20;20.60;;;;;;;;;;4987659;28;20449;-83
2022/09/30 06:22:26;;;;;;;21.98;19.70;;;;;;;;;;4988346;28;20428;-82
2022/09/30 06:24:53;;;;;;;21.77;19.67;;;;;;;;;;4989644;28;20422;-82
2022/09/30 06:27:20;;;;;;;21.23;19.02;;;;;;;;;;4989991;28;20429;-81
2022/09/30 06:29:47;;;;;;;21.80;19.60;;;;;;;;;;4990602;28;20422;-84
2022/09/30 06:32:13;;;;;;;22.80;20.38;;;;;;;;;;4990805;28;20416;-83
2022/09/30 06:34:41;;;;;;;24.27;21.23;;;;;;;;;;4989290;28;20421;-82
2022/09/30 06:37:08;;;;;;;23.07;20.60;;;;;;;;;;4988600;28;20435;-82
2022/09/30 06:39:34;;;;;;;23.85;20.42;;;;;;;;;;4990145;28;20430;-82
2022/09/30 06:42:01;;;;;;;23.33;20.83;;;;;;;;;;4988980;28;20495;-81
2022/09/30 06:44:27;;;;;;;23.17;20.88;;;;;;;;;;4989022;28;20471;-83
2022/09/30 06:46:53;;;;;;;22.38;20.08;;;;;;;;;;4989083;28;20428;-83
2022/09/30 06:49:20;;;;;;;24.65;21.98;;;;;;;;;;4989702;28;20425;-84
2022/09/30 06:51:50;;;;;;;24.80;22.30;;;;;;;;;;4991333;28;20428;-84
2022/09/30 06:54:18;;;;;;;23.48;21.10;;;;;;;;;;4989801;28;20509;-82
2022/09/30 06:56:44;;;;;;;24.50;21.90;;;;;;;;;;4989884;28;20475;-82
2022/09/30 06:59:10;;;;;;;24.55;21.33;;;;;;;;;;4992412;28;20423;-82
2022/09/30 07:01:37;;;;;;;23.75;21.13;;;;;;;;;;4989347;28;20416;-82
2022/09/30 07:04:08;;;;;;;25.23;22.63;;;;;;;;;;4988823;28;20469;-83
2022/09/30 07:06:34;;;;;;;22.70;20.40;;;;;;;;;;4987045;28;20460;-81
2022/09/30 07:09:02;;;;;;;23.42;21.02;;;;;;;;;;4986959;28;20436;-82
2022/09/30 07:11:29;;;;;;;23.27;20.95;;;;;;;;;;4970429;28;20523;-84
2022/09/30 07:13:56;;;;;;;23.40;21.10;;;;;;;;;;4987862;28;20908;-81
2022/09/30 07:16:24;;;;;;;23.27;20.77;;;;;;;;;;4985436;28;20427;-83
2022/09/30 07:18:51;;;;;;;24.50;21.85;;;;;;;;;;4985941;28;20530;-82
2022/09/30 07:21:17;;;;;;;24.17;20.58;;;;;;;;;;4984700;28;20497;-81
2022/09/30 07:23:46;;;;;;;23.30;20.95;;;;;;;;;;4986298;28;20424;-82
2022/09/30 07:26:16;;;;;;;22.60;20.27;;;;;;;;;;4987272;28;20425;-84
2022/09/30 07:28:42;;;;;;;23.63;19.55;;;;;;;;;;4987240;28;20436;-84
2022/09/30 07:31:11;;;;;;;22.37;20.07;;;;;;;;;;4987248;28;20936;-84
2022/09/30 07:33:38;;;;;;;22.45;20.05;;;;;;;;;;4984881;28;20473;-83
2022/09/30 07:36:07;;;;;;;22.88;20.58;;;;;;;;;;4984887;28;20422;-83
2022/09/30 07:38:35;;;;;;;22.20;20.00;;;;;;;;;;4986132;28;20423;-84
2022/09/30 07:41:03;;;;;;;23.27;20.98;;;;;;;;;;4986606;28;20478;-84
2022/09/30 07:43:37;;;;;;;22.50;20.10;;;;;;;;;;4984352;28;20924;-83
2022/09/30 07:46:04;;;;;;;22.02;19.63;;;;;;;;;;4987225;28;20490;-83
2022/09/30 07:48:42;;;;;;;22.38;20.08;;;;;;;;;;4986326;28;20434;-83
2022/09/30 07:51:10;;;;;;;22.13;19.30;;;;;;;;;;4984845;28;20507;-83
2022/09/30 07:53:36;;;;;;;20.85;18.85;;;;;;;;;;4984102;28;20430;-83
2022/09/30 07:56:03;;;;;;;20.10;18.00;;;;;;;;;;4985566;28;20415;-86
2022/09/30 07:58:31;;;;;;;18.63;16.77;;;;;;;;;;4985175;28;20424;-84
2022/09/30 08:00:58;;;;;;;17.77;15.98;;;;;;;;;;4984032;28;20422;-83
2022/09/30 08:03:24;;;;;;;17.30;15.70;;;;;;;;;;4985274;28;20429;-82
2022/09/30 08:05:51;;;;;;;17.67;16.08;;;;;;;;;;4985815;28;20420;-83
2022/09/30 08:08:17;;;;;;;16.75;15.05;;;;;;;;;;4984859;28;20981;-81
2022/09/30 08:10:46;;;;;;;16.27;14.68;;;;;;;;;;4985950;28;20942;-83
2022/09/30 08:13:13;;;;;;;16.05;14.45;;;;;;;;;;4982341;28;20454;-84
2022/09/30 08:15:41;;;;;;;15.45;14.05;;;;;;;;;;4984822;28;20420;-83
2022/09/30 08:18:07;;;;;;;14.18;12.68;;;;;;;;;;4987208;28;20408;-84
2022/09/30 08:20:34;;;;;;;15.45;13.40;;;;;;;;;;4987189;28;20420;-81
2022/09/30 08:23:00;;;;;;;15.10;13.60;;;;;;;;;;4986083;28;20419;-81
2022/09/30 08:25:27;;;;;;;13.37;12.07;;;;;;;;;;4985847;28;20808;-82
2022/09/30 08:27:54;;;;;;;13.77;12.32;;;;;;;;;;4986470;28;20865;-82
2022/09/30 08:30:20;;;;;;;14.60;13.10;;;;;;;;;;4985233;28;20418;-82
2022/09/30 08:32:48;;;;;;;16.97;13.20;;;;;;;;;;4986788;28;20422;-82
2022/09/30 08:35:14;;;;;;;14.75;12.73;;;;;;;;;;4985111;28;20422;-83
2022/09/30 08:37:41;;;;;;;13.55;12.25;;;;;;;;;;4983977;28;20422;-82
2022/09/30 08:40:15;;;;;;;13.75;12.35;;;;;;;;;;4985468;28;20416;-81
2022/09/30 08:42:50;;;;;;;13.40;12.10;;;;;;;;;;4984053;28;20438;-82
2022/09/30 08:45:22;;;;;;;12.80;11.40;;;;;;;;;;4984331;28;20425;-83
2022/09/30 08:47:53;;;;;;;12.50;11.20;;;;;;;;;;4985278;28;20425;-81
2022/09/30 08:50:22;;;;;;;12.63;11.27;;;;;;;;;;4984589;28;20783;-81
2022/09/30 08:52:50;;;;;;;12.17;10.87;;;;;;;;;;4982315;28;20913;-81
2022/09/30 08:55:20;;;;;;;12.77;11.47;;;;;;;;;;4984321;28;20428;-83
2022/09/30 08:57:47;;;;;;;13.20;11.90;;;;;;;;;;4982564;28;20423;-83
2022/09/30 09:00:15;;;;;;;12.68;11.48;;;;;;;;;;4986286;28;20429;-83
2022/09/30 09:02:44;;;;;;;12.05;10.85;;;;;;;;;;4983929;28;20450;-84
2022/09/30 09:05:18;;;;;;;10.82;9.82;;;;;;;;;;4984960;28;20424;-81
2022/09/30 09:07:47;;;;;;;11.48;10.27;;;;;;;;;;4983719;28;20415;-81
2022/09/30 09:10:22;;;;;;;11.07;9.98;;;;;;;;;;4983877;28;20804;-82
2022/09/30 09:12:55;;;;;;;10.10;9.10;;;;;;;;;;4982263;28;21332;-80
2022/09/30 09:15:39;;;;;;;9.05;8.10;;;;;;;;;;4983350;28;20452;-83
2022/09/30 09:18:14;;;;;;;10.35;9.25;;;;;;;;;;5014441;28;20423;-83
2022/09/30 09:20:46;;;;;;;8.90;8.00;;;;;;;;;;4983373;28;20422;-83
2022/09/30 09:23:13;;;;;;;9.27;8.27;;;;;;;;;;4984326;28;20902;-83
2022/09/30 09:25:40;;;;;;;8.60;7.80;;;;;;;;;;4980273;28;20915;-84
2022/09/30 09:28:12;;;;;;;9.27;8.35;;;;;;;;;;4963766;28;20420;-82
2022/09/30 09:30:42;;;;;;;12.63;9.50;;;;;;;;;;4966525;28;20449;-83
2022/09/30 09:33:14;;;;;;;11.40;9.77;;;;;;;;;;4982618;28;20463;-84
2022/09/30 09:35:45;;;;;;;11.00;9.90;;;;;;;;;;4982651;28;20478;-83
2022/09/30 09:38:26;;;;;;;11.32;10.13;;;;;;;;;;4963245;28;20424;-83
2022/09/30 09:40:58;;;;;;;9.90;8.90;;;;;;;;;;4963252;28;20816;-83
2022/09/30 09:43:29;;;;;;;9.00;8.15;;;;;;;;;;4965731;28;20792;-84
2022/09/30 09:45:59;;;;;;;10.37;8.40;;;;;;;;;;4966044;28;20426;-83
2022/09/30 09:48:25;;;;;;;8.70;7.90;;;;;;;;;;4963629;28;20429;-83
2022/09/30 09:50:58;;;;;;;7.97;7.18;;;;;;;;;;4966708;28;20424;-83
2022/09/30 09:53:44;;;;;;;8.50;7.23;;;;;;;;;;4962190;28;20436;-83
2022/09/30 09:56:17;;;;;;;8.85;8.02;;;;;;;;;;4960346;28;20427;-83
2022/09/30 09:58:59;;;;;;;8.32;7.53;;;;;;;;;;4964509;28;20417;-83
2022/09/30 10:01:32;;;;;;;8.63;7.20;;;;;;;;;;4963628;28;20515;-83
2022/09/30 10:04:10;;;;;;;9.25;8.25;;;;;;;;;;4965611;28;20420;-82
2022/09/30 10:06:46;;;;;;;7.20;6.50;;;;;;;;;;4979028;28;20428;-81
2022/09/30 10:09:24;;;;;;;7.20;6.45;;;;;;;;;;4962419;28;20433;-83
2022/09/30 10:11:50;;;;;;;6.80;5.78;;;;;;;;;;4965256;28;20523;-82
2022/09/30 10:14:18;;;;;;;7.28;6.43;;;;;;;;;;4964182;28;20422;-83
2022/09/30 10:16:45;;;;;;;7.97;6.70;;;;;;;;;;4964101;28;20424;-83
2022/09/30 10:19:18;;;;;;;9.40;6.30;;;;;;;;;;4966197;28;20425;-83
2022/09/30 10:21:46;;;;;;;7.13;6.20;;;;;;;;;;4969902;28;20427;-82
2022/09/30 10:24:18;;;;;;;6.90;6.15;;;;;;;;;;4981047;28;20411;-83
2022/09/30 10:26:46;;;;;;;6.13;5.35;;;;;;;;;;4983069;28;20438;-82
2022/09/30 10:29:24;;;;;;;6.60;6.00;;;;;;;;;;4981765;28;20523;-82
2022/09/30 10:31:52;;;;;;;7.65;6.95;;;;;;;;;;4982666;28;20429;-83
2022/09/30 10:34:24;;;;;;;8.15;6.90;;;;;;;;;;4983122;28;20414;-83
2022/09/30 10:36:52;;;;;;;9.30;7.28;;;;;;;;;;4996853;28;20428;-81
2022/09/30 10:39:20;;;;;;;8.07;6.72;;;;;;;;;;4997543;28;20479;-81
2022/09/30 10:41:46;;;;;;;7.03;5.70;;;;;;;;;;4984901;28;20432;-81
2022/09/30 10:44:15;;;;;;;6.82;5.25;;;;;;;;;;4988275;28;20427;-84
2022/09/30 10:46:44;;;;;;;6.10;5.50;;;;;;;;;;4986833;28;20509;-83
2022/09/30 10:49:11;;;;;;;5.82;5.22;;;;;;;;;;5016270;28;20427;-82
2022/09/30 10:51:38;;;;;;;6.87;5.33;;;;;;;;;;4989020;28;21020;-82
2022/09/30 10:54:06;;;;;;;5.15;4.25;;;;;;;;;;5017178;28;20434;-82
2022/09/30 10:56:36;;;;;;;4.85;4.38;;;;;;;;;;4988247;28;20789;-83
2022/09/30 10:59:04;;;;;;;5.70;5.20;;;;;;;;;;4989076;28;20461;-84
2022/09/30 11:01:34;;;;;;;5.18;4.68;;;;;;;;;;5005241;28;20496;-81
2022/09/30 11:04:05;;;;;;;6.00;5.20;;;;;;;;;;4985424;28;20432;-83
2022/09/30 11:06:33;;;;;;;6.75;6.15;;;;;;;;;;4982512;28;20424;-84
2022/09/30 11:09:03;;;;;;;6.97;6.27;;;;;;;;;;4987695;28;20794;-83
2022/09/30 11:11:33;;;;;;;6.82;6.00;;;;;;;;;;4986413;28;20498;-83
2022/09/30 11:14:03;;;;;;;6.40;5.80;;;;;;;;;;4988052;28;20442;-83
2022/09/30 11:16:32;;;;;;;5.95;5.45;;;;;;;;;;4986518;28;20505;-83
2022/09/30 11:19:01;;;;;;;6.53;5.60;;;;;;;;;;5016361;28;20441;-83
2022/09/30 11:21:29;;;;;;;6.75;6.05;;;;;;;;;;4984093;28;20430;-81
2022/09/30 11:23:59;;;;;;;7.57;6.60;;;;;;;;;;4988805;28;20433;-80
2022/09/30 11:26:31;;;;;;;6.60;5.60;;;;;;;;;;4986946;28;20442;-81
2022/09/30 11:29:09;;;;;;;5.10;4.60;;;;;;;;;;4986934;28;20429;-81
2022/09/30 11:31:36;;;;;;;4.90;4.50;;;;;;;;;;4985711;28;20427;-81
2022/09/30 11:34:14;;;;;;;4.90;4.40;;;;;;;;;;4989046;28;20445;-80
2022/09/30 11:36:44;;;;;;;4.90;4.50;;;;;;;;;;4984999;28;20422;-82
2022/09/30 11:39:21;;;;;;;4.10;3.70;;;;;;;;;;4985078;28;20435;-82
2022/09/30 11:41:49;;;;;;;4.32;3.92;;;;;;;;;;4999157;28;20487;-82
2022/09/30 11:44:22;;;;;;;4.10;3.70;;;;;;;;;;5000374;28;20439;-84
2022/09/30 11:46:57;;;;;;;4.17;3.87;;;;;;;;;;4986850;28;20420;-80
2022/09/30 11:49:38;;;;;;;5.60;3.70;;;;;;;;;;4987471;28;20425;-80
2022/09/30 11:52:09;;;;;;;4.32;3.85;;;;;;;;;;4988186;28;20425;-82
2022/09/30 11:54:44;;;;;;;4.10;3.70;;;;;;;;;;4987041;28;20428;-81
2022/09/30 11:57:13;;;;;;;4.25;3.72;;;;;;;;;;4986462;28;20419;-83
2022/09/30 11:59:43;;;;;;;3.70;3.40;;;;;;;;;;4985172;28;20422;-83
2022/09/30 12:02:14;;;;;;;4.70;3.60;;;;;;;;;;4986239;28;20423;-81
2022/09/30 12:04:42;;;;;;;4.20;3.60;;;;;;;;;;4985361;28;20465;-81
2022/09/30 12:07:12;;;;;;;4.47;4.07;;;;;;;;;;4981370;28;20423;-83
2022/09/30 12:09:40;;;;;;;4.70;4.07;;;;;;;;;;4983682;28;20505;-82
2022/09/30 12:12:09;;;;;;;4.50;4.10;;;;;;;;;;4983944;28;20795;-82
2022/09/30 12:14:39;;;;;;;4.45;4.05;;;;;;;;;;4985772;28;20446;-82
2022/09/30 12:17:11;;;;;;;6.03;5.30;;;;;;;;;;4986618;28;20426;-80
2022/09/30 12:19:41;;;;;;;5.85;4.93;;;;;;;;;;4987012;28;20428;-81
2022/09/30 12:22:12;;;;;;;5.68;4.95;;;;;;;;;;5015938;28;20457;-83
2022/09/30 12:24:39;;;;;;;5.85;5.28;;;;;;;;;;5018885;28;20426;-81
2022/09/30 12:27:12;;;;;;;5.28;4.78;;;;;;;;;;4984254;28;20462;-82
2022/09/30 12:32:40;;;;;;;6.23;5.63;;;;;;;;;;5012091;28;20493;-83
2022/09/30 12:35:16;;;;;;;6.65;6.05;;;;;;;;;;4983607;28;20434;-82
2022/09/30 12:37:51;;;;;;;6.80;6.10;;;;;;;;;;4984146;28;20423;-82
2022/09/30 12:40:26;;;;;;;6.63;6.03;;;;;;;;;;4984511;28;20550;-82
2022/09/30 12:43:03;;;;;;;7.00;6.18;;;;;;;;;;4985379;28;20918;-82
2022/09/30 12:45:36;;;;;;;6.80;6.10;;;;;;;;;;4982063;28;21019;-82
2022/09/30 12:48:05;;;;;;;6.80;6.20;;;;;;;;;;4983079;28;20505;-81
2022/09/30 12:50:34;;;;;;;7.70;6.82;;;;;;;;;;4984602;28;20514;-82
2022/09/30 12:53:09;;;;;;;6.45;5.75;;;;;;;;;;4998096;28;20474;-82
2022/09/30 12:55:38;;;;;;;7.50;6.70;;;;;;;;;;4983565;28;20420;-81
2022/09/30 12:58:05;;;;;;;7.43;6.73;;;;;;;;;;4984383;28;20442;-83
2022/09/30 13:00:33;;;;;;;7.75;6.38;;;;;;;;;;4981648;28;20418;-82
2022/09/30 13:03:04;;;;;;;7.40;6.70;;;;;;;;;;4983542;28;20446;-83
2022/09/30 13:05:58;;;;;;;9.63;7.45;;;;;;;;;;4984683;28;20418;-82
2022/09/30 13:08:43;;;;;;;8.10;7.30;;;;;;;;;;4979517;28;20435;-82
2022/09/30 13:11:30;;;;;;;8.73;7.93;;;;;;;;;;4968582;28;20484;-82
2022/09/30 13:13:59;;;;;;;7.70;6.90;;;;;;;;;;4982601;28;20498;-83
2022/09/30 13:16:40;;;;;;;8.43;7.63;;;;;;;;;;4982441;28;20424;-81
2022/09/30 13:19:19;;;;;;;8.13;7.40;;;;;;;;;;4982499;28;20410;-82
2022/09/30 13:21:45;;;;;;;9.18;7.95;;;;;;;;;;4983229;28;20435;-81
2022/09/30 13:24:13;;;;;;;10.35;9.00;;;;;;;;;;4984749;28;20418;-82
2022/09/30 13:27:07;;;;;;;9.27;8.47;;;;;;;;;;4982876;28;20418;-82
2022/09/30 13:29:49;;;;;;;9.18;8.20;;;;;;;;;;4980680;28;20428;-83
2022/09/30 13:32:31;;;;;;;9.77;8.77;;;;;;;;;;4987202;28;20426;-81
2022/09/30 13:34:57;;;;;;;10.90;9.75;;;;;;;;;;4983113;28;20470;-83
2022/09/30 13:37:31;;;;;;;9.80;8.77;;;;;;;;;;4981716;28;20420;-80
2022/09/30 13:40:00;;;;;;;11.80;9.00;;;;;;;;;;5013556;28;20920;-82
2022/09/30 13:42:29;;;;;;;9.63;8.70;;;;;;;;;;4983716;28;20780;-83
2022/09/30 13:44:59;;;;;;;11.80;9.05;;;;;;;;;;4983330;28;20435;-81
2022/09/30 13:47:27;;;;;;;9.30;8.30;;;;;;;;;;4983221;28;20443;-80
2022/09/30 13:49:57;;;;;;;10.25;8.35;;;;;;;;;;4982814;28;20428;-82
2022/09/30 13:52:26;;;;;;;9.57;8.38;;;;;;;;;;4982626;28;20416;-81
2022/09/30 13:54:54;;;;;;;10.20;9.10;;;;;;;;;;4984923;28;20453;-80
2022/09/30 13:57:23;;;;;;;9.85;8.85;;;;;;;;;;4985545;28;20424;-82
2022/09/30 14:00:00;;;;;;;9.45;8.45;;;;;;;;;;4982040;28;20426;-81
2022/09/30 14:02:32;;;;;;;10.95;8.63;;;;;;;;;;4983383;28;20465;-82
2022/09/30 14:05:12;;;;;;;9.47;8.20;;;;;;;;;;4983154;28;20416;-81
2022/09/30 14:07:46;;;;;;;9.55;7.80;;;;;;;;;;4983819;28;20426;-82
2022/09/30 14:10:29;;;;;;;9.10;7.97;;;;;;;;;;4982548;28;20503;-81
2022/09/30 14:13:05;;;;;;;8.20;7.40;;;;;;;;;;4983125;28;20418;-82
2022/09/30 14:15:42;;;;;;;8.90;8.00;;;;;;;;;;4988155;28;20424;-81
2022/09/30 14:18:21;;;;;;;9.45;7.20;;;;;;;;;;4987493;28;20419;-81
2022/09/30 14:20:54;;;;;;;8.50;7.60;;;;;;;;;;5003728;28;20972;-81
2022/09/30 14:23:21;;;;;;;7.85;7.05;;;;;;;;;;4989562;28;20422;-80
2022/09/30 14:25:51;;;;;;;9.32;7.70;;;;;;;;;;4985152;28;20410;-82
2022/09/30 14:28:20;;;;;;;10.02;7.55;;;;;;;;;;4986604;28;20902;-83
2022/09/30 14:33:30;;;;;;;9.15;7.85;;;;;;;;;;4981664;28;20432;-82
2022/09/30 14:36:00;;;;;;;8.57;7.32;;;;;;;;;;4988838;28;20428;-81
2022/09/30 14:38:28;;;;;;;8.27;7.40;;;;;;;;;;4987964;28;20415;-81
2022/09/30 14:40:56;;;;;;;14.80;8.30;;;;;;;;;;4987613;28;20414;-81
2022/09/30 14:43:27;;;;;;;9.55;8.55;;;;;;;;;;4987474;28;20420;-82
2022/09/30 14:46:00;;;;;;;9.13;8.10;;;;;;;;;;4988548;28;20429;-82
2022/09/30 14:48:28;;;;;;;9.25;8.10;;;;;;;;;;4984696;28;20424;-83